createdAt,value
2018-12-29T00:01:32.716Z,7.53
2018-12-29T00:11:37.869Z,5.97
2018-12-29T00:16:45.328Z,17.77
2018-12-29T00:21:52.460Z,7.33
2018-12-29T00:26:59.650Z,7.63
2018-12-29T00:32:06.964Z,8.57
2018-12-29T00:37:14.042Z,5.37
2018-12-29T00:42:21.382Z,4.90
2018-12-29T00:47:28.540Z,5.97
2018-12-29T00:52:35.604Z,6.20
2018-12-29T00:57:42.776Z,12.03
2018-12-29T01:02:53.733Z,11.13
2018-12-29T01:08:00.903Z,7.33
2018-12-29T01:13:08.159Z,10.20
2018-12-29T01:18:15.311Z,8.90
2018-12-29T01:23:22.333Z,6.13
2018-12-29T01:28:29.504Z,4.43
2018-12-29T01:33:36.582Z,9.27
2018-12-29T01:38:43.746Z,7.50
2018-12-29T01:43:50.836Z,7.00
2018-12-29T01:48:58.031Z,6.03
2018-12-29T01:54:05.831Z,9.87
2018-12-29T01:59:13.237Z,9.65
2018-12-29T02:04:20.306Z,11.08
2018-12-29T02:09:27.590Z,7.47
2018-12-29T02:14:34.758Z,9.27
2018-12-29T02:19:41.952Z,6.17
2018-12-29T02:24:49.122Z,9.60
2018-12-29T02:29:56.283Z,4.10
2018-12-29T02:35:03.454Z,6.43
2018-12-29T02:40:11.540Z,8.13
2018-12-29T02:45:18.727Z,5.33
2018-12-29T02:50:25.862Z,8.53
2018-12-29T02:55:33.022Z,6.20
2018-12-29T03:00:40.117Z,4.93
2018-12-29T03:05:47.268Z,5.17
2018-12-29T03:10:54.348Z,5.60
2018-12-29T03:16:01.407Z,11.00
2018-12-29T03:21:08.650Z,4.43
2018-12-29T03:26:15.705Z,9.07
2018-12-29T03:31:22.893Z,4.73
2018-12-29T03:36:29.896Z,6.80
2018-12-29T03:41:37.133Z,6.90
2018-12-29T03:46:44.309Z,6.03
2018-12-29T03:51:51.380Z,8.77
2018-12-29T03:56:58.545Z,8.20
2018-12-29T04:02:06.285Z,8.97
2018-12-29T04:07:13.373Z,3.37
2018-12-29T04:12:26.404Z,6.73
2018-12-29T04:17:33.579Z,4.87
2018-12-29T04:22:40.853Z,5.30
2018-12-29T04:27:48.015Z,4.27
2018-12-29T04:32:55.121Z,4.00
2018-12-29T04:38:02.182Z,6.77
2018-12-29T04:43:09.236Z,6.13
2018-12-29T04:48:16.299Z,7.67
2018-12-29T04:53:23.545Z,22.07
2018-12-29T04:58:30.822Z,12.23
2018-12-29T05:03:37.911Z,5.83
2018-12-29T05:08:45.288Z,4.40
2018-12-29T05:13:52.444Z,2.73
2018-12-29T05:18:59.834Z,5.77
2018-12-29T05:24:06.959Z,3.00
2018-12-29T05:29:14.106Z,3.63
2018-12-29T05:34:21.607Z,4.60
2018-12-29T05:39:32.979Z,6.30
2018-12-29T05:44:40.207Z,10.20
2018-12-29T05:49:47.290Z,4.30
2018-12-29T05:54:54.449Z,4.77
2018-12-29T06:00:01.937Z,5.47
2018-12-29T06:05:08.995Z,4.93
2018-12-29T06:10:16.169Z,4.43
2018-12-29T06:15:24.462Z,4.43
2018-12-29T06:20:31.626Z,12.90
2018-12-29T06:25:38.691Z,10.30
2018-12-29T06:30:47.622Z,15.33
2018-12-29T06:35:54.700Z,15.47
2018-12-29T06:41:02.061Z,19.33
2018-12-29T06:46:09.344Z,18.73
2018-12-29T06:51:16.419Z,12.97
2018-12-29T06:56:23.608Z,23.42
2018-12-29T07:01:30.690Z,13.60
2018-12-29T07:06:37.935Z,7.53
2018-12-29T07:11:45.098Z,5.80
2018-12-29T07:16:52.165Z,5.20
2018-12-29T07:21:59.435Z,9.53
2018-12-29T07:27:06.500Z,15.43
2018-12-29T07:32:13.661Z,11.63
2018-12-29T07:37:20.923Z,14.60
2018-12-29T07:42:31.869Z,10.07
2018-12-29T07:47:39.326Z,15.03
2018-12-29T07:52:46.734Z,10.63
2018-12-29T07:57:53.987Z,31.53
2018-12-29T08:03:01.072Z,14.93
2018-12-29T08:08:08.261Z,9.23
2018-12-29T08:13:15.374Z,13.50
2018-12-29T08:18:23.053Z,24.03
2018-12-29T08:23:30.107Z,16.30
2018-12-29T08:28:38.435Z,8.40
2018-12-29T08:33:45.550Z,10.63
2018-12-29T08:38:52.629Z,7.83
2018-12-29T08:43:59.722Z,22.17
2018-12-29T08:49:06.813Z,24.40
2018-12-29T08:54:13.883Z,18.77
2018-12-29T08:59:21.160Z,14.63
2018-12-29T09:04:28.783Z,13.23
2018-12-29T09:09:36.311Z,21.30
2018-12-29T09:14:43.658Z,25.17
2018-12-29T09:19:50.755Z,19.50
2018-12-29T09:24:57.923Z,13.50
2018-12-29T09:30:06.480Z,12.07
2018-12-29T09:35:13.651Z,18.53
2018-12-29T09:40:21.827Z,10.00
2018-12-29T09:45:28.865Z,11.07
2018-12-29T09:50:39.416Z,13.23
2018-12-29T09:55:47.714Z,13.83
2018-12-29T10:00:54.847Z,12.45
2018-12-29T10:06:01.987Z,26.50
2018-12-29T10:11:09.670Z,12.23
2018-12-29T10:16:16.933Z,15.95
2018-12-29T10:21:24.311Z,17.73
2018-12-29T10:26:31.590Z,17.97
2018-12-29T10:31:38.675Z,17.43
2018-12-29T10:36:45.756Z,28.07
2018-12-29T10:41:53.923Z,14.10
2018-12-29T10:47:01.148Z,17.80
2018-12-29T10:52:08.336Z,13.10
2018-12-29T10:57:15.512Z,27.50
2018-12-29T11:02:22.578Z,19.10
2018-12-29T11:07:29.715Z,33.57
2018-12-29T11:12:37.203Z,52.77
2018-12-29T11:17:44.546Z,9.03
2018-12-29T11:22:52.054Z,7.47
2018-12-29T11:27:59.248Z,9.20
2018-12-29T11:33:06.528Z,6.17
2018-12-29T11:38:13.745Z,36.33
2018-12-29T11:43:21.629Z,24.27
2018-12-29T11:48:28.862Z,15.37
2018-12-29T11:53:40.240Z,40.15
2018-12-29T11:58:47.416Z,29.90
2018-12-29T12:03:54.621Z,11.83
2018-12-29T12:09:01.992Z,17.30
2018-12-29T12:14:10.862Z,13.43
2018-12-29T12:19:18.023Z,6.40
2018-12-29T12:24:25.196Z,8.07
2018-12-29T12:29:32.382Z,11.13
2018-12-29T12:34:39.587Z,14.00
2018-12-29T12:39:47.094Z,7.83
2018-12-29T12:44:54.266Z,20.43
2018-12-29T12:50:01.430Z,9.43
2018-12-29T12:55:09.078Z,8.57
2018-12-29T13:00:17.090Z,12.27
2018-12-29T13:05:24.259Z,9.63
2018-12-29T13:10:33.457Z,11.40
2018-12-29T13:15:40.478Z,14.57
2018-12-29T13:20:47.563Z,12.90
2018-12-29T13:25:54.853Z,15.93
2018-12-29T13:31:01.928Z,18.97
2018-12-29T13:36:09.425Z,7.47
2018-12-29T13:41:16.800Z,13.40
2018-12-29T13:46:23.990Z,17.50
2018-12-29T13:51:31.370Z,16.83
2018-12-29T13:56:39.760Z,23.77
2018-12-29T14:01:47.263Z,22.37
2018-12-29T14:06:55.677Z,23.53
2018-12-29T14:12:03.270Z,54.83
2018-12-29T14:17:10.653Z,10.20
2018-12-29T14:22:18.027Z,33.00
2018-12-29T14:27:26.899Z,37.77
2018-12-29T14:32:34.205Z,42.00
2018-12-29T14:37:41.312Z,28.87
2018-12-29T14:42:48.705Z,13.07
2018-12-29T14:47:56.085Z,30.03
2018-12-29T14:53:03.670Z,15.37
2018-12-29T14:58:11.237Z,81.90
2018-12-29T15:03:18.673Z,8.80
2018-12-29T15:08:26.935Z,14.13
2018-12-29T15:13:34.425Z,14.97
2018-12-29T15:18:44.207Z,12.90
2018-12-29T15:23:50.434Z,103.23
2018-12-29T15:28:57.845Z,51.90
2018-12-29T15:34:05.256Z,34.43
2018-12-29T15:39:13.163Z,73.15
2018-12-29T15:44:20.309Z,29.70
2018-12-29T15:49:27.678Z,80.77
2018-12-29T15:54:34.863Z,57.67
2018-12-29T15:59:41.943Z,34.83
2018-12-29T16:04:50.007Z,23.47
2018-12-29T16:09:58.198Z,71.27
2018-12-29T16:15:06.227Z,32.00
2018-12-29T16:20:15.093Z,187.87
2018-12-29T16:25:22.699Z,281.90
2018-12-29T16:30:31.261Z,124.30
2018-12-29T16:35:38.577Z,28.27
2018-12-29T16:40:46.553Z,43.70
2018-12-29T16:45:54.861Z,166.50
2018-12-29T16:51:02.113Z,323.47
2018-12-29T16:56:09.857Z,91.20
2018-12-29T17:01:16.981Z,60.17
2018-12-29T17:06:24.541Z,55.13
2018-12-29T17:11:32.708Z,49.80
2018-12-29T17:16:39.946Z,15.20
2018-12-29T17:21:47.098Z,54.00
2018-12-29T17:26:54.283Z,47.00
2018-12-29T17:32:01.925Z,75.97
2018-12-29T17:37:09.098Z,200.53
2018-12-29T17:42:16.915Z,110.73
2018-12-29T17:47:24.168Z,149.87
2018-12-29T17:52:32.481Z,74.07
2018-12-29T17:57:40.951Z,97.53
2018-12-29T18:02:49.302Z,201.37
2018-12-29T18:07:56.633Z,74.50
2018-12-29T18:13:04.834Z,115.20
2018-12-29T18:18:11.887Z,40.28
2018-12-29T18:23:20.260Z,44.27
2018-12-29T18:28:28.468Z,25.60
2018-12-29T18:33:37.565Z,20.57
2018-12-29T18:38:44.970Z,33.80
2018-12-29T18:43:53.053Z,25.03
2018-12-29T18:49:00.307Z,13.57
2018-12-29T18:54:07.801Z,48.83
2018-12-29T18:59:15.036Z,35.03
2018-12-29T19:04:22.106Z,17.60
2018-12-29T19:09:29.317Z,21.47
2018-12-29T19:14:37.068Z,24.00
2018-12-29T19:19:46.429Z,15.30
2018-12-29T19:24:53.126Z,19.23
2018-12-29T19:30:02.791Z,14.47
2018-12-29T19:35:11.051Z,26.23
2018-12-29T19:40:19.422Z,17.52
2018-12-29T19:45:28.301Z,17.27
2018-12-29T19:50:36.119Z,11.77
2018-12-29T19:55:44.916Z,19.20
2018-12-29T20:00:52.324Z,10.37
2018-12-29T20:06:00.763Z,14.30
2018-12-29T20:11:08.538Z,12.23
2018-12-29T20:16:16.611Z,12.17
2018-12-29T20:21:23.997Z,79.67
2018-12-29T20:26:32.072Z,29.27
2018-12-29T20:31:39.456Z,74.17
2018-12-29T20:36:51.470Z,31.17
2018-12-29T20:42:00.264Z,35.90
2018-12-29T20:47:07.453Z,44.03
2018-12-29T20:52:15.252Z,29.85
2018-12-29T20:57:22.737Z,31.53
2018-12-29T21:02:30.101Z,33.93
2018-12-29T21:07:37.477Z,40.10
2018-12-29T21:12:44.737Z,49.47
2018-12-29T21:17:51.907Z,37.70
2018-12-29T21:23:00.090Z,41.40
2018-12-29T21:28:08.181Z,56.63
2018-12-29T21:33:15.267Z,61.18
2018-12-29T21:38:22.460Z,68.30
2018-12-29T21:43:29.750Z,218.97
2018-12-29T21:48:36.798Z,124.23
2018-12-29T21:53:43.961Z,121.17
2018-12-29T21:58:51.423Z,109.43
2018-12-29T22:03:58.700Z,86.03
2018-12-29T22:09:07.950Z,180.33
2018-12-29T22:14:15.358Z,61.35
2018-12-29T22:19:23.230Z,67.67
2018-12-29T22:24:31.921Z,104.60
2018-12-29T22:29:39.332Z,73.03
2018-12-29T22:34:46.421Z,62.20
2018-12-29T22:39:55.045Z,65.67
2018-12-29T22:45:02.116Z,52.70
2018-12-29T22:50:09.517Z,40.73
2018-12-29T22:55:16.676Z,47.87
2018-12-29T23:00:49.779Z,47.70
2018-12-29T23:05:57.136Z,46.60
2018-12-29T23:11:05.990Z,40.90
2018-12-29T23:16:13.061Z,43.83
2018-12-29T23:21:21.621Z,37.65
2018-12-29T23:26:28.683Z,44.20
2018-12-29T23:31:35.871Z,55.97
2018-12-29T23:36:43.244Z,45.80
2018-12-29T23:41:50.623Z,40.77
2018-12-29T23:46:58.174Z,39.87
2018-12-29T23:52:05.871Z,44.73
2018-12-29T23:57:12.969Z,115.57
